Main page
METAR-TAF:

METAR-TAF

Airports :

Yap, Yap Island, Micronesia

Yap International Airport

latitude: 09-29N, longitude: 138-05E, elevation: 28 m

Current weather observation

The report was made 56 minutes ago, at 01:50 UTC
Wind 8 kt from the East/Northeast
Temperature 29°C
Humidity 79%
Pressure 1014 hPa
Visibility: 19.3 km
Scattered clouds at a height of 1600 ft, Cumulonimbus.
Broken clouds at a height of 13000 ft
Overcast at a height of 30000 ft

METAR: PTYA 300150Z 07008KT 12SM SCT016CB BKN130 OVC300 29/25 A2993 RMK SHRAE07 CB SE-SW SLP135 T02910254

Time: 12:46 (02:46 UTC)

Forecast

The report was made 3 hours and 14 minutes ago, at 23:32 UTC
Forecast valid from 30 at 00 UTC to 30 at 24 UTC
Wind 10 kt from the East/Northeast
Visibility: 10 km
Scattered clouds at a height of 1600 ft
Broken clouds at a height of 13000 ft
showers in vicinity

TAF: PTYA 292332Z 3000/3024 07010KT P6SM VCSH SCT016 BKN130

Weather observations and forecasts of more than 4000 airports (METAR and TAF reports).

The available stations are represented by yellow and red dots on the map.

Hover mouse over dot to see the name of the station.

Then click to see weather observations and forecasts.

To change the map : click on the green buttons with a black cross to zoom in, on the green button with a dash to zoom out, or on the green arrows for adjacent maps.


METAR-TAF: